createdAt,value
2023-06-22T00:02:26.513Z,7.07
2023-06-22T00:04:53.008Z,6.45
2023-06-22T00:07:19.533Z,6.13
2023-06-22T00:09:46.035Z,6.80
2023-06-22T00:12:12.484Z,6.85
2023-06-22T00:14:38.938Z,6.00
2023-06-22T00:17:05.391Z,5.68
2023-06-22T00:19:31.849Z,6.68
2023-06-22T00:22:01.269Z,6.13
2023-06-22T00:24:27.812Z,7.05
2023-06-22T00:26:54.339Z,6.38
2023-06-22T00:29:21.227Z,7.10
2023-06-22T00:31:48.339Z,6.18
2023-06-22T00:34:15.270Z,9.48
2023-06-22T00:36:41.992Z,7.63
2023-06-22T00:39:09.181Z,9.68
2023-06-22T00:41:36.433Z,9.85
2023-06-22T00:44:04.964Z,7.82
2023-06-22T00:46:32.576Z,8.32
2023-06-22T00:49:00.906Z,8.95
2023-06-22T00:51:28.758Z,9.30
2023-06-22T00:53:55.506Z,9.02
2023-06-22T00:56:25.817Z,9.88
2023-06-22T00:58:53.745Z,9.00
2023-06-22T01:01:24.810Z,8.23
2023-06-22T01:03:52.219Z,8.73
2023-06-22T01:06:27.911Z,7.65
2023-06-22T01:09:21.110Z,7.28
2023-06-22T01:12:01.675Z,9.02
2023-06-22T01:14:38.837Z,8.60
2023-06-22T01:17:06.446Z,9.75
2023-06-22T01:19:36.756Z,9.33
2023-06-22T01:22:04.908Z,8.15
2023-06-22T01:24:36.964Z,11.63
2023-06-22T01:27:29.688Z,9.65
2023-06-22T01:30:01.547Z,9.00
2023-06-22T01:32:31.582Z,8.82
2023-06-22T01:35:00.250Z,10.60
2023-06-22T01:37:28.510Z,10.30
2023-06-22T01:39:56.604Z,8.68
2023-06-22T01:42:25.077Z,9.50
2023-06-22T01:44:53.163Z,10.13
2023-06-22T01:47:21.374Z,10.20
2023-06-22T01:49:47.911Z,10.07
2023-06-22T01:52:14.493Z,10.82
2023-06-22T01:54:41.324Z,10.45
2023-06-22T01:57:07.880Z,10.85
2023-06-22T01:59:40.765Z,9.80
2023-06-22T02:02:11.631Z,10.20
2023-06-22T02:04:59.190Z,9.60
2023-06-22T02:07:31.002Z,10.05
2023-06-22T02:09:58.686Z,9.70
2023-06-22T02:12:26.576Z,9.10
2023-06-22T02:14:53.381Z,9.52
2023-06-22T02:17:20.216Z,9.25
2023-06-22T02:19:46.861Z,10.90
2023-06-22T02:22:14.797Z,10.68
2023-06-22T02:24:41.357Z,12.98
2023-06-22T02:27:08.212Z,9.35
2023-06-22T02:29:34.753Z,9.45
2023-06-22T02:32:02.712Z,9.70
2023-06-22T02:34:29.215Z,9.80
2023-06-22T02:36:55.699Z,10.23
2023-06-22T02:39:24.237Z,9.70
2023-06-22T02:41:51.999Z,9.35
2023-06-22T02:44:18.874Z,9.13
2023-06-22T02:46:45.823Z,9.35
2023-06-22T02:49:13.404Z,8.63
2023-06-22T02:51:46.995Z,9.60
2023-06-22T02:54:14.812Z,8.63
2023-06-22T02:56:44.683Z,9.48
2023-06-22T03:01:41.183Z,8.80
2023-06-22T03:04:17.278Z,8.88
2023-06-22T03:06:43.809Z,9.90
2023-06-22T03:09:10.374Z,9.55
2023-06-22T03:11:37.459Z,8.55
2023-06-22T03:14:04.679Z,8.88
2023-06-22T03:16:31.253Z,9.05
2023-06-22T03:18:58.440Z,9.77
2023-06-22T03:21:25.090Z,9.85
2023-06-22T03:23:52.523Z,11.38
2023-06-22T03:26:19.326Z,8.60
2023-06-22T03:28:45.864Z,9.75
2023-06-22T03:31:12.587Z,8.63
2023-06-22T03:33:40.986Z,10.88
2023-06-22T03:36:07.540Z,9.52
2023-06-22T03:38:34.197Z,8.82
2023-06-22T03:41:00.814Z,9.88
2023-06-22T03:43:28.824Z,9.00
2023-06-22T03:45:56.532Z,9.70
2023-06-22T03:48:22.988Z,8.35
2023-06-22T03:50:49.427Z,8.10
2023-06-22T03:53:15.900Z,8.70
2023-06-22T03:55:51.271Z,8.45
2023-06-22T03:58:20.077Z,9.98
2023-06-22T04:00:47.866Z,8.70
2023-06-22T04:03:15.142Z,8.05
2023-06-22T04:05:42.206Z,8.15
2023-06-22T04:08:09.473Z,7.97
2023-06-22T04:10:35.978Z,8.18
2023-06-22T04:13:02.482Z,8.20
2023-06-22T04:15:29.060Z,10.95
2023-06-22T04:17:56.445Z,8.65
2023-06-22T04:20:23.242Z,8.32
2023-06-22T04:22:49.722Z,9.70
2023-06-22T04:25:16.202Z,8.50
2023-06-22T04:27:42.789Z,8.20
2023-06-22T04:30:09.579Z,8.25
2023-06-22T04:32:40.655Z,9.15
2023-06-22T04:35:07.627Z,7.88
2023-06-22T04:37:34.663Z,7.82
2023-06-22T04:40:01.336Z,8.20
2023-06-22T04:42:28.083Z,8.48
2023-06-22T04:44:54.855Z,10.27
2023-06-22T04:47:21.552Z,8.65
2023-06-22T04:49:48.239Z,7.70
2023-06-22T04:52:18.600Z,8.35
2023-06-22T04:54:49.001Z,8.48
2023-06-22T04:57:15.732Z,9.43
2023-06-22T04:59:43.158Z,8.50
2023-06-22T05:02:10.354Z,9.18
2023-06-22T05:04:40.215Z,7.63
2023-06-22T05:07:07.709Z,8.48
2023-06-22T05:09:36.943Z,10.05
2023-06-22T05:12:04.140Z,7.93
2023-06-22T05:14:31.315Z,8.00
2023-06-22T05:16:59.788Z,9.55
2023-06-22T05:19:32.405Z,8.15
2023-06-22T05:21:58.860Z,9.55
2023-06-22T05:29:53.457Z,8.05
2023-06-22T05:35:05.323Z,7.60
2023-06-22T05:37:31.830Z,9.07
2023-06-22T05:39:58.444Z,6.90
2023-06-22T05:42:26.680Z,7.85
2023-06-22T05:44:54.324Z,8.27
2023-06-22T05:47:20.902Z,7.80
2023-06-22T05:49:47.443Z,7.20
2023-06-22T05:52:13.912Z,7.93
2023-06-22T05:54:40.339Z,8.55
2023-06-22T05:57:06.811Z,8.45
2023-06-22T05:59:33.264Z,7.72
2023-06-22T06:01:59.772Z,8.27
2023-06-22T06:04:26.925Z,7.75
2023-06-22T06:06:53.540Z,8.52
2023-06-22T06:09:19.969Z,7.75
2023-06-22T06:11:46.426Z,7.88
2023-06-22T06:14:12.903Z,7.82
2023-06-22T06:16:39.366Z,8.43
2023-06-22T06:19:05.820Z,7.70
2023-06-22T06:21:32.285Z,9.13
2023-06-22T06:23:59.663Z,10.07
2023-06-22T06:26:30.500Z,8.13
2023-06-22T06:28:58.176Z,9.38
2023-06-22T06:31:24.720Z,9.45
2023-06-22T06:33:51.499Z,7.93
2023-06-22T06:36:18.116Z,7.80
2023-06-22T06:38:44.604Z,7.97
2023-06-22T06:41:11.049Z,7.75
2023-06-22T06:43:37.505Z,8.23
2023-06-22T06:46:04.330Z,8.57
2023-06-22T06:48:31.196Z,8.20
2023-06-22T06:50:57.666Z,8.27
2023-06-22T06:53:24.191Z,7.85
2023-06-22T06:55:50.680Z,10.27
2023-06-22T06:58:17.284Z,10.43
2023-06-22T07:00:44.585Z,9.63
2023-06-22T07:03:11.117Z,9.63
2023-06-22T07:05:37.594Z,10.25
2023-06-22T07:08:04.207Z,9.30
2023-06-22T07:10:31.253Z,9.88
2023-06-22T07:12:58.266Z,9.57
2023-06-22T07:15:24.888Z,8.70
2023-06-22T07:17:51.419Z,11.55
2023-06-22T07:20:20.353Z,9.82
2023-06-22T07:22:46.853Z,10.73
2023-06-22T07:25:15.852Z,8.77
2023-06-22T07:27:57.285Z,8.73
2023-06-22T07:30:24.164Z,10.20
2023-06-22T07:32:50.646Z,12.98
2023-06-22T07:35:20.064Z,9.43
2023-06-22T07:37:46.569Z,8.45
2023-06-22T07:40:13.519Z,8.82
2023-06-22T07:42:39.975Z,10.30
2023-06-22T07:45:09.289Z,8.48
2023-06-22T07:47:36.674Z,9.75
2023-06-22T07:50:04.108Z,9.82
2023-06-22T07:52:30.788Z,9.52
2023-06-22T07:54:57.492Z,11.65
2023-06-22T07:57:23.969Z,10.77
2023-06-22T07:59:50.413Z,11.38
2023-06-22T08:02:16.978Z,8.63
2023-06-22T08:04:43.946Z,8.25
2023-06-22T08:07:11.420Z,9.85
2023-06-22T08:09:37.972Z,8.80
2023-06-22T08:12:04.802Z,10.13
2023-06-22T08:14:31.311Z,9.10
2023-06-22T08:16:57.755Z,13.45
2023-06-22T08:19:24.210Z,8.55
2023-06-22T08:21:50.718Z,9.43
2023-06-22T08:24:17.160Z,8.57
2023-06-22T08:26:43.609Z,9.65
2023-06-22T08:29:10.305Z,11.68
2023-06-22T08:31:36.846Z,9.15
2023-06-22T08:34:03.345Z,7.65
2023-06-22T08:36:31.257Z,11.45
2023-06-22T08:39:03.620Z,10.07
2023-06-22T08:41:30.475Z,10.00
2023-06-22T08:43:56.966Z,9.63
2023-06-22T08:46:25.677Z,7.70
2023-06-22T08:51:18.482Z,9.82
2023-06-22T08:53:46.147Z,7.97
2023-06-22T08:56:12.736Z,8.10
2023-06-22T08:58:39.185Z,8.02
2023-06-22T09:01:05.764Z,9.40
2023-06-22T09:06:00.308Z,7.60
2023-06-22T09:08:26.854Z,7.68
2023-06-22T09:10:53.406Z,9.30
2023-06-22T09:13:19.987Z,7.35
2023-06-22T09:15:46.596Z,7.60
2023-06-22T09:18:14.772Z,7.38
2023-06-22T09:20:41.256Z,7.45
2023-06-22T09:23:07.725Z,8.30
2023-06-22T09:25:34.273Z,7.53
2023-06-22T09:28:00.733Z,8.65
2023-06-22T09:30:27.421Z,7.13
2023-06-22T09:32:55.349Z,9.38
2023-06-22T09:35:21.824Z,8.00
2023-06-22T09:37:48.266Z,11.30
2023-06-22T09:40:17.672Z,6.93
2023-06-22T09:42:44.170Z,7.97
2023-06-22T09:45:10.840Z,7.47
2023-06-22T09:47:37.448Z,8.63
2023-06-22T09:50:04.189Z,7.63
2023-06-22T09:52:43.356Z,7.50
2023-06-22T09:55:16.550Z,8.57
2023-06-22T09:57:43.023Z,7.93
2023-06-22T10:00:10.473Z,8.38
2023-06-22T10:02:37.072Z,6.68
2023-06-22T10:05:04.066Z,7.70
2023-06-22T10:07:30.704Z,8.80
2023-06-22T10:09:57.158Z,8.63
2023-06-22T10:12:23.605Z,9.48
2023-06-22T10:14:50.041Z,8.48
2023-06-22T10:17:16.991Z,7.65
2023-06-22T10:19:43.592Z,8.55
2023-06-22T10:22:10.065Z,10.68
2023-06-22T10:24:36.647Z,7.57
2023-06-22T10:27:03.120Z,6.93
2023-06-22T10:29:29.855Z,6.82
2023-06-22T10:31:56.305Z,7.38
2023-06-22T10:34:22.795Z,7.80
2023-06-22T10:36:49.670Z,7.13
2023-06-22T10:39:16.418Z,7.13
2023-06-22T10:41:42.904Z,9.90
2023-06-22T10:44:09.407Z,7.85
2023-06-22T10:46:35.891Z,7.07
2023-06-22T10:49:02.406Z,7.35
2023-06-22T10:51:29.320Z,8.18
2023-06-22T10:53:55.853Z,8.68
2023-06-22T10:56:22.312Z,11.10
2023-06-22T10:58:48.755Z,8.77
2023-06-22T11:01:30.375Z,12.00
2023-06-22T11:04:01.816Z,6.97
2023-06-22T11:06:28.350Z,9.18
2023-06-22T11:09:04.919Z,8.48
2023-06-22T11:11:38.877Z,13.02
2023-06-22T11:14:05.498Z,7.72
2023-06-22T11:16:32.179Z,7.13
2023-06-22T11:18:58.652Z,9.20
2023-06-22T11:21:25.094Z,11.05
2023-06-22T11:23:51.712Z,8.98
2023-06-22T11:26:18.308Z,7.18
2023-06-22T11:28:44.760Z,9.43
2023-06-22T11:31:25.141Z,9.60
2023-06-22T11:33:52.880Z,10.93
2023-06-22T11:36:19.861Z,6.97
2023-06-22T11:38:46.352Z,8.48
2023-06-22T11:41:12.873Z,9.25
2023-06-22T11:43:39.335Z,13.40
2023-06-22T11:46:05.851Z,9.10
2023-06-22T11:48:32.519Z,10.27
2023-06-22T11:51:00.040Z,7.30
2023-06-22T11:53:27.808Z,8.25
2023-06-22T11:55:56.034Z,9.25
2023-06-22T11:58:22.870Z,7.82
2023-06-22T12:00:52.001Z,8.60
2023-06-22T12:03:19.602Z,9.48
2023-06-22T12:05:46.242Z,10.23
2023-06-22T12:08:14.273Z,10.23
2023-06-22T12:10:40.910Z,9.02
2023-06-22T12:13:07.516Z,7.72
2023-06-22T12:15:34.258Z,11.43
2023-06-22T12:18:02.146Z,7.90
2023-06-22T12:20:28.943Z,8.82
2023-06-22T12:22:57.108Z,9.75
2023-06-22T12:25:23.847Z,8.30
2023-06-22T12:27:50.506Z,11.65
2023-06-22T12:30:17.446Z,11.55
2023-06-22T12:32:44.165Z,10.55
2023-06-22T12:35:14.712Z,8.38
2023-06-22T12:37:42.665Z,11.27
2023-06-22T12:40:09.804Z,9.80
2023-06-22T12:42:36.310Z,9.13
2023-06-22T12:45:02.921Z,10.07
2023-06-22T12:47:29.468Z,9.63
2023-06-22T12:49:55.991Z,9.95
2023-06-22T12:52:22.558Z,9.68
2023-06-22T12:54:55.325Z,7.57
2023-06-22T12:57:22.608Z,7.70
2023-06-22T12:59:49.100Z,8.65
2023-06-22T13:02:15.756Z,8.30
2023-06-22T13:04:42.586Z,9.02
2023-06-22T13:07:19.515Z,10.35
2023-06-22T13:09:52.497Z,10.65
2023-06-22T13:12:21.288Z,10.13
2023-06-22T13:14:48.059Z,9.60
2023-06-22T13:17:15.036Z,10.88
2023-06-22T13:19:42.079Z,8.98
2023-06-22T13:22:29.973Z,7.32
2023-06-22T13:24:56.744Z,12.15
2023-06-22T13:27:23.585Z,9.93
2023-06-22T13:35:18.261Z,10.52
2023-06-22T13:40:28.748Z,7.97
2023-06-22T13:45:39.292Z,11.50
2023-06-22T13:50:50.162Z,9.63
2023-06-22T13:53:16.629Z,10.07
2023-06-22T13:55:43.195Z,11.80
2023-06-22T13:58:09.619Z,9.77
2023-06-22T14:00:36.063Z,10.65
2023-06-22T14:03:02.730Z,8.02
2023-06-22T14:05:29.321Z,10.10
2023-06-22T14:07:55.820Z,10.38
2023-06-22T14:10:22.296Z,14.77
2023-06-22T14:12:48.852Z,15.35
2023-06-22T14:15:15.337Z,13.73
2023-06-22T14:17:41.879Z,8.40
2023-06-22T14:20:09.469Z,10.77
2023-06-22T14:22:36.367Z,10.40
2023-06-22T14:25:03.006Z,13.57
2023-06-22T14:27:29.492Z,10.77
2023-06-22T14:29:55.926Z,9.50
2023-06-22T14:32:22.364Z,10.23
2023-06-22T14:34:51.030Z,13.82
2023-06-22T14:37:17.542Z,11.07
2023-06-22T14:39:44.189Z,10.15
2023-06-22T14:42:10.751Z,9.65
2023-06-22T14:44:37.420Z,9.38
2023-06-22T14:47:03.921Z,7.68
2023-06-22T14:49:30.390Z,15.00
2023-06-22T14:51:56.986Z,12.68
2023-06-22T14:54:23.455Z,9.73
2023-06-22T14:56:50.000Z,10.98
2023-06-22T14:59:16.458Z,12.02
2023-06-22T15:01:44.254Z,8.55
2023-06-22T15:04:11.901Z,9.15
2023-06-22T15:06:38.362Z,8.65
2023-06-22T15:09:04.889Z,11.77
2023-06-22T15:11:31.521Z,8.25
2023-06-22T15:14:00.290Z,9.05
2023-06-22T15:16:27.016Z,9.45
2023-06-22T15:18:53.475Z,8.63
2023-06-22T15:21:20.064Z,8.30
2023-06-22T15:23:46.507Z,9.82
2023-06-22T15:26:13.003Z,11.15
2023-06-22T15:28:40.439Z,10.63
2023-06-22T15:31:07.300Z,9.88
2023-06-22T15:33:33.895Z,12.77
2023-06-22T15:36:04.816Z,13.10
2023-06-22T15:38:32.415Z,13.35
2023-06-22T15:40:58.878Z,11.95
2023-06-22T15:43:25.501Z,10.48
2023-06-22T15:45:54.646Z,9.18
2023-06-22T15:48:22.023Z,11.82
2023-06-22T15:50:48.590Z,10.45
2023-06-22T15:53:15.257Z,10.95
2023-06-22T15:55:41.713Z,10.25
2023-06-22T15:58:09.828Z,11.45
2023-06-22T16:00:36.334Z,12.55
2023-06-22T16:03:03.059Z,11.95
2023-06-22T16:05:29.819Z,11.63
2023-06-22T16:07:59.457Z,9.85
2023-06-22T16:10:26.270Z,11.00
2023-06-22T16:12:54.743Z,11.77
2023-06-22T16:17:47.672Z,11.15
2023-06-22T16:20:17.708Z,10.75
2023-06-22T16:22:45.373Z,13.20
2023-06-22T16:25:11.838Z,11.55
2023-06-22T16:27:38.869Z,8.82
2023-06-22T16:30:08.061Z,12.57
2023-06-22T16:32:34.592Z,13.85
2023-06-22T16:35:01.087Z,11.63
2023-06-22T16:37:27.549Z,12.23
2023-06-22T16:39:54.060Z,12.68
2023-06-22T16:42:20.747Z,15.98
2023-06-22T16:44:47.260Z,9.02
2023-06-22T16:47:13.748Z,16.75
2023-06-22T16:49:40.307Z,10.30
2023-06-22T16:52:07.182Z,12.57
2023-06-22T16:54:34.628Z,12.27
2023-06-22T16:57:03.352Z,9.98
2023-06-22T16:59:29.882Z,9.95
2023-06-22T17:01:57.867Z,12.07
2023-06-22T17:04:25.641Z,12.02
2023-06-22T17:06:59.480Z,13.52
2023-06-22T17:09:28.303Z,11.35
2023-06-22T17:11:55.144Z,6.82
2023-06-22T17:14:22.137Z,8.10
2023-06-22T17:16:50.095Z,9.35
2023-06-22T17:19:16.874Z,8.60
2023-06-22T17:21:45.493Z,7.32
2023-06-22T17:24:17.982Z,9.55
2023-06-22T17:26:53.420Z,8.20
2023-06-22T17:29:20.354Z,9.10
2023-06-22T17:31:48.238Z,9.15
2023-06-22T17:34:16.048Z,12.57
2023-06-22T17:36:50.024Z,6.78
2023-06-22T17:39:20.567Z,8.57
2023-06-22T17:41:48.265Z,8.98
2023-06-22T17:44:19.476Z,7.05
2023-06-22T17:46:45.996Z,8.20
2023-06-22T17:49:15.331Z,8.93
2023-06-22T17:51:43.013Z,9.60
2023-06-22T17:54:09.918Z,8.95
2023-06-22T17:56:36.405Z,7.78
2023-06-22T17:59:02.981Z,10.02
2023-06-22T18:01:36.655Z,13.48
2023-06-22T18:04:14.023Z,8.65
2023-06-22T18:06:45.044Z,7.20
2023-06-22T18:09:13.437Z,10.85
2023-06-22T18:11:48.071Z,8.25
2023-06-22T18:14:18.969Z,9.43
2023-06-22T18:16:49.454Z,7.10
2023-06-22T18:19:16.779Z,12.00
2023-06-22T18:21:47.212Z,9.75
2023-06-22T18:24:15.129Z,9.23
2023-06-22T18:26:41.790Z,8.35
2023-06-22T18:29:09.358Z,7.53
2023-06-22T18:31:36.269Z,7.57
2023-06-22T18:34:06.551Z,7.72
2023-06-22T18:36:36.555Z,8.82
2023-06-22T18:39:05.877Z,9.27
2023-06-22T18:41:37.471Z,8.60
2023-06-22T18:44:11.883Z,13.05
2023-06-22T18:46:39.689Z,10.23
2023-06-22T18:49:14.184Z,11.60
2023-06-22T18:52:06.368Z,9.40
2023-06-22T18:54:37.400Z,12.55
2023-06-22T18:57:17.089Z,8.13
2023-06-22T18:59:48.680Z,6.40
2023-06-22T19:02:18.044Z,8.00
2023-06-22T19:04:45.441Z,7.30
2023-06-22T19:07:13.168Z,7.72
2023-06-22T19:09:39.828Z,6.20
2023-06-22T19:12:32.354Z,7.53
2023-06-22T19:15:17.099Z,10.88
2023-06-22T19:17:44.222Z,10.20
2023-06-22T19:20:12.446Z,5.03
2023-06-22T19:22:48.112Z,5.80
2023-06-22T19:25:24.007Z,8.32
2023-06-22T19:27:55.425Z,8.07
2023-06-22T19:30:22.936Z,8.05
2023-06-22T19:32:49.874Z,9.38
2023-06-22T19:35:18.297Z,7.25
2023-06-22T19:37:46.990Z,8.30
2023-06-22T19:40:14.661Z,7.00
2023-06-22T19:42:42.991Z,5.85
2023-06-22T19:45:10.565Z,8.93
2023-06-22T19:47:37.957Z,7.93
2023-06-22T19:50:06.579Z,5.70
2023-06-22T19:52:37.109Z,6.85
2023-06-22T19:55:05.398Z,5.65
2023-06-22T19:57:35.902Z,8.45
2023-06-22T20:00:12.835Z,6.47
2023-06-22T20:02:45.889Z,6.38
2023-06-22T20:05:13.667Z,5.65
2023-06-22T20:07:41.694Z,7.25
2023-06-22T20:10:12.000Z,3.90
2023-06-22T20:12:38.878Z,3.28
2023-06-22T20:15:26.557Z,3.55
2023-06-22T20:17:54.326Z,3.78
2023-06-22T20:20:25.536Z,4.32
2023-06-22T20:22:52.252Z,4.20
2023-06-22T20:25:22.924Z,2.13
2023-06-22T20:27:50.045Z,4.38
2023-06-22T20:30:26.683Z,2.45
2023-06-22T20:32:56.925Z,1.58
2023-06-22T20:35:25.327Z,3.58
2023-06-22T20:37:55.781Z,5.25
2023-06-22T20:40:27.490Z,2.85
2023-06-22T20:42:55.569Z,2.70
2023-06-22T20:45:22.708Z,3.60
2023-06-22T20:47:49.279Z,1.73
2023-06-22T20:50:15.840Z,1.67
2023-06-22T20:52:43.170Z,0.80
2023-06-22T20:55:09.742Z,2.38
2023-06-22T20:57:36.204Z,3.47
2023-06-22T21:00:13.062Z,2.97
2023-06-22T21:02:39.815Z,0.73
2023-06-22T21:05:06.460Z,1.58
2023-06-22T21:07:32.921Z,1.10
2023-06-22T21:09:59.466Z,1.60
2023-06-22T21:12:25.922Z,0.98
2023-06-22T21:14:52.421Z,1.50
2023-06-22T21:17:19.730Z,3.28
2023-06-22T21:19:46.264Z,2.58
2023-06-22T21:22:12.757Z,1.90
2023-06-22T21:24:39.319Z,2.95
2023-06-22T21:27:06.017Z,0.90
2023-06-22T21:29:32.551Z,1.67
2023-06-22T21:31:59.044Z,0.90
2023-06-22T21:34:26.358Z,1.70
2023-06-22T21:36:53.078Z,1.15
2023-06-22T21:39:19.850Z,5.57
2023-06-22T21:41:46.355Z,0.60
2023-06-22T21:44:12.794Z,0.90
2023-06-22T21:46:39.509Z,1.55
2023-06-22T21:49:05.944Z,3.80
2023-06-22T21:51:34.098Z,1.02
2023-06-22T21:54:01.620Z,1.25
2023-06-22T21:56:28.381Z,1.25
2023-06-22T21:58:54.993Z,2.60
2023-06-22T22:01:21.566Z,3.08
2023-06-22T22:03:48.416Z,0.90
2023-06-22T22:06:14.933Z,4.53
2023-06-22T22:08:41.428Z,2.35
2023-06-22T22:11:07.977Z,1.15
2023-06-22T22:13:36.131Z,0.88
2023-06-22T22:16:02.789Z,1.17
2023-06-22T22:18:29.240Z,1.65
2023-06-22T22:20:55.707Z,0.68
2023-06-22T22:23:23.538Z,1.42
2023-06-22T22:25:50.061Z,1.23
2023-06-22T22:28:16.690Z,2.13
2023-06-22T22:30:43.428Z,1.67
2023-06-22T22:33:10.998Z,1.67
2023-06-22T22:35:37.688Z,1.65
2023-06-22T22:38:04.333Z,0.68
2023-06-22T22:40:30.789Z,0.60
2023-06-22T22:42:57.262Z,0.60
2023-06-22T22:45:23.718Z,2.58
2023-06-22T22:47:50.289Z,1.45
2023-06-22T22:50:16.825Z,2.25
2023-06-22T22:52:43.351Z,5.05
2023-06-22T22:55:09.997Z,0.85
2023-06-22T22:57:36.640Z,1.65
2023-06-22T23:00:04.862Z,0.47
2023-06-22T23:02:32.585Z,0.20
2023-06-22T23:05:00.353Z,0.30
2023-06-22T23:07:28.933Z,0.38
2023-06-22T23:09:56.124Z,0.75
2023-06-22T23:12:22.599Z,3.88
2023-06-22T23:14:50.616Z,0.40
2023-06-22T23:17:20.792Z,0.50
2023-06-22T23:19:47.611Z,1.00
2023-06-22T23:22:14.435Z,2.47
2023-06-22T23:24:40.973Z,3.45
2023-06-22T23:27:09.013Z,1.90
2023-06-22T23:29:35.514Z,3.13
2023-06-22T23:32:02.058Z,2.47
2023-06-22T23:34:30.352Z,2.67
2023-06-22T23:36:56.826Z,2.60
2023-06-22T23:39:25.243Z,3.47
2023-06-22T23:41:51.998Z,3.15
2023-06-22T23:44:18.853Z,3.40
2023-06-22T23:46:45.361Z,3.22
2023-06-22T23:49:11.842Z,3.55
2023-06-22T23:51:38.318Z,3.58
2023-06-22T23:54:04.843Z,3.28
2023-06-22T23:56:31.380Z,3.20
2023-06-22T23:58:57.871Z,3.60
